Time;durP1;ratioP1;P1;durP2;ratioP2;P2;SDS_P1;SDS_P2;PMS_P1;PMS_P2;Temp;Humidity;BMP_temperature;BMP_pressure;BME280_temperature;BME280_humidity;BME280_pressure;Samples;Min_cycle;Max_cycle;Signal;HPM_P1;HPM_P2
2021/12/24 00:02:30;;;;;;;;;;;9.30;99.90;;;;;;4900541;29;20558;-85
2021/12/24 00:06:08;;;;;;;;;;;8.90;99.90;;;;;;4927821;29;19927;-82
2021/12/24 00:09:08;;;;;;;;;;;9.00;99.90;;;;;;4935552;29;19930;-81
2021/12/24 00:12:11;;;;;;;;;;;9.00;99.90;;;;;;4933526;29;19942;-82
2021/12/24 00:19:33;;;;;;;;;;;;;;;;;;;;;
2021/12/24 00:38:15;;;;;;;;;;;;;;;;;;;;;
2021/12/24 00:42:04;;;;;;;;;;;;;;;;;;;;;
2021/12/24 00:49:29;;;;;;;;;;;9.50;99.90;;;;;;4756501;30;20753;-84
2021/12/24 01:04:47;;;;;;;;;;;;;;;;;;;;;
2021/12/24 01:08:29;;;;;;;;;;;8.50;99.90;;;;;;4856470;29;19946;-82
2021/12/24 01:12:14;;;;;;;;;;;8.40;99.90;;;;;;4855635;29;20570;-84
2021/12/24 01:20:01;;;;;;;;;;;7.90;99.90;;;;;;4877590;29;19932;-82
2021/12/24 01:26:35;;;;;;;;;;;8.50;99.90;;;;;;4891332;29;19928;-82
2021/12/24 01:43:05;;;;;;;;;;;;;;;;;;;;;
2021/12/24 01:46:37;;;;;;;;;;;;;;;;;;;;;
2021/12/24 01:49:52;;;;;;;;;;;8.20;99.90;;;;;;4919617;29;19930;-82
2021/12/24 01:53:16;;;;;;;;;;;8.20;99.90;;;;;;4909841;29;19970;-83
2021/12/24 01:56:18;;;;;;;;;;;9.20;99.90;;;;;;4898378;29;19938;-82
2021/12/24 02:00:03;;;;;;;;;;;8.10;99.90;;;;;;4897106;29;19938;-81
2021/12/24 02:03:32;;;;;;;;;;;;;;;;;;;;;
2021/12/24 02:11:20;;;;;;;;;;;;;;;;;;;;;
2021/12/24 02:31:17;;;;;;;;;;;7.50;99.90;;;;;;4789834;30;19946;-83
2021/12/24 02:38:07;;;;;;;;;;;7.50;99.90;;;;;;4768339;30;19936;-82
2021/12/24 02:41:20;;;;;;;;;;;7.60;99.90;;;;;;4796366;30;19940;-82
2021/12/24 02:56:21;;;;;;;;;;;;;;;;;;;;;
2021/12/24 03:00:02;;;;;;;;;;;9.00;99.90;;;;;;4917263;29;19934;-82
2021/12/24 03:03:39;;;;;;;;;;;;;;;;;;;;;
2021/12/24 03:07:42;;;;;;;;;;;;;;;;;;;;;
2021/12/24 03:10:57;;;;;;;;;;;9.00;99.90;;;;;;4945749;29;19927;-84
2021/12/24 03:13:35;;;;;;;;;;;8.10;99.90;;;;;;4931340;29;19927;-83
2021/12/24 03:16:24;;;;;;;;;;;8.20;99.90;;;;;;4949660;29;19950;-82
2021/12/24 03:19:11;;;;;;;;;;;8.20;99.90;;;;;;4939610;29;19930;-83
2021/12/24 03:29:57;;;;;;;;;;;;;;;;;;;;;
2021/12/24 03:33:34;;;;;;;;;;;8.60;99.90;;;;;;4948864;29;19938;-83
2021/12/24 03:41:32;;;;;;;;;;;8.30;99.90;;;;;;4843684;29;19929;-84
2021/12/24 03:59:36;;;;;;;;;;;;;;;;;;;;;
2021/12/24 04:03:05;;;;;;;;;;;8.00;99.90;;;;;;4759757;30;20404;-82
2021/12/24 04:06:05;;;;;;;;;;;8.00;99.90;;;;;;4921293;29;20818;-82
2021/12/24 04:08:55;;;;;;;;;;;8.00;99.90;;;;;;4926335;29;20548;-82
2021/12/24 04:11:51;;;;;;;;;;;7.70;99.90;;;;;;4978333;28;19938;-82
2021/12/24 04:14:29;;;;;;;;;;;8.10;99.90;;;;;;4987205;28;19932;-81
2021/12/24 04:27:14;;;;;;;;;;;6.80;99.90;;;;;;5006398;28;19932;-82
2021/12/24 04:30:10;;;;;;;;;;;8.60;99.90;;;;;;5016009;28;19933;-83
2021/12/24 04:33:03;;;;;;;;;;;8.40;99.90;;;;;;5005420;28;20011;-82
2021/12/24 05:04:02;;;;;;;;;;;8.80;99.90;;;;;;4987739;28;19928;-82
2021/12/24 05:11:25;;;;;;;;;;;;;;;;;;;;;
2021/12/24 05:14:34;;;;;;;;;;;9.50;99.90;;;;;;4874642;29;20106;-83
2021/12/24 05:26:05;;;;;;;;;;;;;;;;;;;;;
2021/12/24 05:29:29;;;;;;;;;;;10.90;99.90;;;;;;4764174;29;19924;-83
2021/12/24 05:32:38;;;;;;;;;;;9.50;99.90;;;;;;4759220;29;19928;-82
2021/12/24 05:35:24;;;;;;;;;;;9.00;99.90;;;;;;4840937;29;19924;-82
2021/12/24 05:38:14;;;;;;;;;;;9.00;99.90;;;;;;4888298;29;19932;-84
2021/12/24 05:50:07;;;;;;;;;;;8.80;99.90;;;;;;4857727;29;19928;-82
2021/12/24 05:53:32;;;;;;;;;;;9.20;99.90;;;;;;4889115;29;19947;-82
2021/12/24 05:56:52;;;;;;;;;;;8.70;99.90;;;;;;4883521;29;19928;-83
2021/12/24 05:59:37;;;;;;;;;;;8.90;99.90;;;;;;4883490;29;19988;-83
2021/12/24 06:02:51;;;;;;;;;;;8.60;99.90;;;;;;4879613;29;19931;-82
2021/12/24 06:06:06;;;;;;;;;;;8.80;99.90;;;;;;4966314;29;19926;-83
2021/12/24 06:08:49;;;;;;;;;;;9.00;99.90;;;;;;4943174;29;19938;-84
2021/12/24 06:11:46;;;;;;;;;;;8.60;99.90;;;;;;4911267;29;19934;-82
2021/12/24 06:15:09;;;;;;;;;;;8.80;99.90;;;;;;4948130;29;19947;-83
2021/12/24 06:18:11;;;;;;;;;;;8.50;99.90;;;;;;4927185;29;20352;-83
2021/12/24 06:20:45;;;;;;;;;;;8.80;99.90;;;;;;4931656;29;20509;-80
2021/12/24 06:23:14;;;;;;;;;;;8.80;99.90;;;;;;4915523;29;20000;-81
2021/12/24 06:25:52;;;;;;;;;;;8.80;99.90;;;;;;4948159;29;20822;-80
2021/12/24 06:28:22;;;;;;;;;;;8.90;99.90;;;;;;4930831;29;19949;-80
2021/12/24 06:31:08;;;;;;;;;;;8.80;99.90;;;;;;4929688;29;19927;-81
2021/12/24 06:33:48;;;;;;;;;;;9.10;99.90;;;;;;4930345;29;19931;-81
2021/12/24 06:36:20;;;;;;;;;;;8.80;99.90;;;;;;4943525;29;19927;-81
2021/12/24 06:38:52;;;;;;;;;;;8.90;99.90;;;;;;4935645;29;19927;-85
2021/12/24 06:41:30;;;;;;;;;;;7.50;99.90;;;;;;4932569;29;19927;-82
2021/12/24 06:44:03;;;;;;;;;;;8.80;99.90;;;;;;4921687;29;19926;-81
2021/12/24 06:49:35;;;;;;;;;;;8.80;99.90;;;;;;4947963;29;20061;-80
2021/12/24 06:52:09;;;;;;;;;;;8.80;99.90;;;;;;4948417;29;19927;-85
2021/12/24 06:54:51;;;;;;;;;;;;;;;;;;;;;
2021/12/24 06:58:04;;;;;;;;;;;;;;;;;;;;;
2021/12/24 07:01:40;;;;;;;;;;;8.70;99.90;;;;;;4931105;29;20265;-83
2021/12/24 07:04:43;;;;;;;;;;;7.60;99.90;;;;;;4932200;29;19931;-84
2021/12/24 07:07:43;;;;;;;;;;;8.80;99.90;;;;;;4933236;29;19931;-84
2021/12/24 07:10:34;;;;;;;;;;;8.60;99.90;;;;;;4930519;29;19967;-82
2021/12/24 07:20:49;;;;;;;;;;;8.50;99.90;;;;;;4921620;28;19926;-82
2021/12/24 07:23:32;;;;;;;;;;;8.50;99.90;;;;;;5017992;28;19936;-81
2021/12/24 07:26:00;;;;;;;;;;;8.40;99.90;;;;;;5002421;28;19925;-85
2021/12/24 07:28:48;;;;;;;;;;;8.40;99.90;;;;;;4987325;28;19930;-88
2021/12/24 07:36:49;;;;;;;;;;;8.40;99.90;;;;;;4918395;29;19941;-83
2021/12/24 07:40:13;;;;;;;;;;;9.50;99.90;;;;;;4931135;29;19950;-83
2021/12/24 07:48:26;;;;;;;;;;;;;;;;;;;;;
2021/12/24 07:52:27;;;;;;;;;;;;;;;;;;;;;
2021/12/24 07:56:39;;;;;;;;;;;8.50;99.90;;;;;;4928328;28;20010;-84
2021/12/24 08:21:45;;;;;;;;;;;8.80;99.90;;;;;;4954086;23;20471;-90
2021/12/24 08:24:16;;;;;;;;;;;8.90;99.90;;;;;;5032864;28;19924;-88
2021/12/24 08:32:47;;;;;;;;;;;8.70;99.90;;;;;;5025599;28;19937;-88
2021/12/24 08:39:31;;;;;;;;;;;8.60;99.90;;;;;;5340151;22;19936;-85
2021/12/24 08:42:00;;;;;;;;;;;8.60;99.90;;;;;;5056864;28;19915;-90
2021/12/24 08:44:31;;;;;;;;;;;8.60;99.90;;;;;;5020221;28;19916;-89
2021/12/24 08:47:01;;;;;;;;;;;8.60;99.90;;;;;;5038307;28;19925;-89
2021/12/24 08:49:49;;;;;;;;;;;8.70;99.90;;;;;;5027673;28;19917;-88
2021/12/24 08:56:42;;;;;;;;;;;;;;;;;;;;;
2021/12/24 09:00:20;;;;;;;;;;;9.10;99.90;;;;;;5016621;28;19941;-83
2021/12/24 09:03:01;;;;;;;;;;;7.60;99.90;;;;;;5029315;28;20694;-83
2021/12/24 09:06:37;;;;;;;;;;;8.60;99.90;;;;;;5024949;28;19925;-84
2021/12/24 09:13:30;;;;;;;;;;;9.00;99.90;;;;;;4964759;28;19962;-83
2021/12/24 09:16:10;;;;;;;;;;;8.90;99.90;;;;;;4959512;28;19926;-82
2021/12/24 09:19:15;;;;;;;;;;;8.00;99.90;;;;;;4974595;28;20010;-82
2021/12/24 09:22:29;;;;;;;;;;;9.10;99.90;;;;;;4979585;28;20289;-83
2021/12/24 09:25:10;;;;;;;;;;;9.90;99.90;;;;;;4980827;28;19926;-85
2021/12/24 09:45:36;;;;;;;;;;;9.40;99.90;;;;;;5272156;23;19930;-87
2021/12/24 09:48:26;;;;;;;;;;;9.30;99.90;;;;;;4984418;28;20940;-91
2021/12/24 09:51:25;;;;;;;;;;;9.40;99.90;;;;;;4991467;28;20329;-91
2021/12/24 09:54:00;;;;;;;;;;;9.40;99.90;;;;;;4976588;28;20125;-87
2021/12/24 09:56:29;;;;;;;;;;;9.50;99.90;;;;;;4976781;28;19941;-91
2021/12/24 09:59:24;;;;;;;;;;;9.60;99.90;;;;;;4946234;28;19926;-91
2021/12/24 10:02:28;;;;;;;;;;;9.60;99.90;;;;;;5086712;23;19917;-86
2021/12/24 10:05:00;;;;;;;;;;;9.80;99.90;;;;;;4979642;28;19949;-85
2021/12/24 10:07:35;;;;;;;;;;;9.80;99.90;;;;;;4972525;28;19971;-90
2021/12/24 10:10:07;;;;;;;;;;;9.90;99.90;;;;;;5000857;28;19930;-89
2021/12/24 10:12:35;;;;;;;;;;;10.00;99.90;;;;;;4994220;28;19930;-89
2021/12/24 10:15:04;;;;;;;;;;;10.10;99.90;;;;;;4973107;28;20001;-90
2021/12/24 10:17:33;;;;;;;;;;;10.30;99.90;;;;;;4972182;28;19937;-90
2021/12/24 10:20:09;;;;;;;;;;;10.10;99.90;;;;;;4992540;28;19926;-89
2021/12/24 10:23:11;;;;;;;;;;;10.20;99.90;;;;;;5006742;28;19916;-86
2021/12/24 10:26:26;;;;;;;;;;;10.30;99.90;;;;;;4989983;28;19933;-91
2021/12/24 10:29:02;;;;;;;;;;;10.30;99.90;;;;;;4971268;28;19926;-88
2021/12/24 10:31:43;;;;;;;;;;;10.40;99.90;;;;;;4988202;28;19930;-89
2021/12/24 10:34:19;;;;;;;;;;;10.40;99.90;;;;;;4972939;28;19936;-89
2021/12/24 10:36:59;;;;;;;;;;;10.40;99.90;;;;;;4980625;28;19930;-89
2021/12/24 10:39:47;;;;;;;;;;;10.50;99.90;;;;;;5007764;28;19922;-86
2021/12/24 10:42:20;;;;;;;;;;;10.50;99.90;;;;;;4977639;28;19940;-89
2021/12/24 10:44:48;;;;;;;;;;;10.60;99.90;;;;;;4984625;28;19936;-87
2021/12/24 10:47:23;;;;;;;;;;;9.60;99.90;;;;;;4988329;28;19930;-89
2021/12/24 10:53:19;;;;;;;;;;;10.50;99.90;;;;;;4981437;28;19926;-90
2021/12/24 10:55:51;;;;;;;;;;;10.60;99.90;;;;;;4976798;28;19941;-90
2021/12/24 10:58:34;;;;;;;;;;;10.70;99.90;;;;;;4965942;28;19934;-88
2021/12/24 11:01:04;;;;;;;;;;;10.70;99.90;;;;;;4981255;28;19925;-90
2021/12/24 11:03:34;;;;;;;;;;;11.00;99.90;;;;;;4995547;23;19948;-82
2021/12/24 11:06:05;;;;;;;;;;;10.60;99.90;;;;;;4962634;28;19941;-81
2021/12/24 11:08:36;;;;;;;;;;;10.40;99.90;;;;;;4978065;28;20561;-80
2021/12/24 11:11:06;;;;;;;;;;;10.50;99.90;;;;;;4971521;28;20215;-82
2021/12/24 11:13:39;;;;;;;;;;;10.60;99.90;;;;;;4961415;28;19930;-82
2021/12/24 11:16:08;;;;;;;;;;;10.70;99.90;;;;;;4974905;28;19937;-82
2021/12/24 11:18:43;;;;;;;;;;;10.70;99.90;;;;;;4970528;28;19934;-83
2021/12/24 11:21:19;;;;;;;;;;;10.70;99.90;;;;;;4972780;28;20463;-82
2021/12/24 11:23:48;;;;;;;;;;;10.70;99.90;;;;;;4963230;28;19933;-83
2021/12/24 11:26:18;;;;;;;;;;;10.50;99.90;;;;;;4976003;28;19952;-81
2021/12/24 11:28:46;;;;;;;;;;;10.80;99.90;;;;;;4989474;28;19934;-82
2021/12/24 11:31:21;;;;;;;;;;;10.90;99.90;;;;;;4974732;28;19934;-81
2021/12/24 11:33:51;;;;;;;;;;;11.30;99.90;;;;;;4975643;28;19939;-80
2021/12/24 11:36:21;;;;;;;;;;;10.90;99.90;;;;;;4975456;28;19953;-81
2021/12/24 11:38:50;;;;;;;;;;;10.90;99.90;;;;;;4972477;28;19927;-83
2021/12/24 11:41:21;;;;;;;;;;;10.90;99.90;;;;;;4987269;28;20879;-82
2021/12/24 11:43:50;;;;;;;;;;;11.00;99.90;;;;;;4987450;28;19926;-81
2021/12/24 11:46:19;;;;;;;;;;;11.00;99.90;;;;;;4946459;28;19926;-82
2021/12/24 11:48:56;;;;;;;;;;;11.00;99.90;;;;;;4971118;28;19953;-82
2021/12/24 11:51:26;;;;;;;;;;;11.10;99.90;;;;;;4972295;28;19933;-82
2021/12/24 11:53:58;;;;;;;;;;;11.20;99.90;;;;;;4971125;28;19934;-81
2021/12/24 11:56:26;;;;;;;;;;;11.20;99.90;;;;;;4989802;28;19934;-82
2021/12/24 11:58:55;;;;;;;;;;;11.00;99.90;;;;;;4976266;28;19933;-81
2021/12/24 12:01:27;;;;;;;;;;;11.40;99.90;;;;;;4979274;28;19926;-82
2021/12/24 12:04:13;;;;;;;;;;;11.40;99.90;;;;;;4975249;28;19933;-84
2021/12/24 12:07:01;;;;;;;;;;;11.70;99.90;;;;;;4963655;28;20363;-83
2021/12/24 12:10:03;;;;;;;;;;;11.40;99.90;;;;;;4953839;28;19937;-85
2021/12/24 12:12:34;;;;;;;;;;;11.50;99.90;;;;;;4974018;28;19929;-82
2021/12/24 12:44:48;;;;;;;;;;;11.50;99.90;;;;;;4975039;28;19920;-84
2021/12/24 12:47:27;;;;;;;;;;;9.40;99.90;;;;;;4984949;28;19930;-85
2021/12/24 12:50:34;;;;;;;;;;;;;;;;;;;;;
2021/12/24 12:53:43;;;;;;;;;;;11.50;99.90;;;;;;4984163;28;19946;-84
2021/12/24 12:56:31;;;;;;;;;;;10.10;99.90;;;;;;4999920;28;19934;-82
2021/12/24 12:59:06;;;;;;;;;;;11.70;99.90;;;;;;4965553;28;19925;-81
2021/12/24 13:01:58;;;;;;;;;;;11.60;99.90;;;;;;4980087;28;20152;-84
2021/12/24 13:04:35;;;;;;;;;;;11.50;99.90;;;;;;4980272;28;19945;-82
2021/12/24 13:07:26;;;;;;;;;;;11.60;99.90;;;;;;4980610;28;19945;-84
2021/12/24 13:13:41;;;;;;;;;;;11.50;99.90;;;;;;4973185;28;19940;-84
2021/12/24 13:16:20;;;;;;;;;;;11.60;99.90;;;;;;4984779;28;19998;-87
2021/12/24 13:19:04;;;;;;;;;;;10.80;99.90;;;;;;5023364;28;19936;-82
2021/12/24 13:27:54;;;;;;;;;;;11.50;99.90;;;;;;5009749;28;19925;-87
2021/12/24 13:30:25;;;;;;;;;;;12.00;99.90;;;;;;4999917;28;19936;-84
2021/12/24 13:33:11;;;;;;;;;;;11.90;99.90;;;;;;4987590;28;19925;-85
2021/12/24 13:35:52;;;;;;;;;;;11.70;99.90;;;;;;5003999;28;19925;-83
2021/12/24 13:38:35;;;;;;;;;;;12.00;99.90;;;;;;4990536;28;19945;-83
2021/12/24 13:41:32;;;;;;;;;;;11.80;99.90;;;;;;5005174;28;19932;-85
2021/12/24 13:44:38;;;;;;;;;;;11.70;99.90;;;;;;5004549;28;19929;-81
2021/12/24 13:47:25;;;;;;;;;;;11.80;99.90;;;;;;5000702;28;19933;-80
2021/12/24 13:55:29;;;;;;;;;;;11.50;99.90;;;;;;5024305;28;19930;-83
2021/12/24 13:58:03;;;;;;;;;;;11.70;99.90;;;;;;5007979;28;19932;-81
2021/12/24 14:00:35;;;;;;;;;;;11.70;99.90;;;;;;5023382;28;19936;-83
2021/12/24 14:03:29;;;;;;;;;;;11.60;99.90;;;;;;4990311;28;19935;-87
2021/12/24 14:06:50;;;;;;;;;;;11.70;99.90;;;;;;4997148;28;19926;-85
2021/12/24 14:09:43;;;;;;;;;;;11.70;99.90;;;;;;5006945;28;19929;-86
2021/12/24 14:12:32;;;;;;;;;;;11.90;99.90;;;;;;4989651;28;19933;-83
2021/12/24 14:15:23;;;;;;;;;;;11.60;99.90;;;;;;5004585;28;19936;-86
2021/12/24 14:22:27;;;;;;;;;;;11.50;99.90;;;;;;4994850;28;19937;-84
2021/12/24 14:25:08;;;;;;;;;;;11.50;99.90;;;;;;4969695;28;19966;-84
2021/12/24 14:27:37;;;;;;;;;;;11.50;99.90;;;;;;5015985;28;19933;-81
2021/12/24 14:30:13;;;;;;;;;;;11.50;99.90;;;;;;5004231;28;20504;-81
2021/12/24 14:32:45;;;;;;;;;;;11.80;99.90;;;;;;5006095;28;19936;-82
2021/12/24 14:35:23;;;;;;;;;;;11.40;99.90;;;;;;5021295;28;20520;-82
2021/12/24 14:37:58;;;;;;;;;;;11.40;99.90;;;;;;4990928;28;20186;-83
2021/12/24 14:40:33;;;;;;;;;;;11.40;99.90;;;;;;5005971;28;19925;-81
2021/12/24 14:43:14;;;;;;;;;;;11.30;99.90;;;;;;5006923;28;20375;-83
2021/12/24 14:45:45;;;;;;;;;;;12.30;99.90;;;;;;5022133;28;19945;-82
2021/12/24 14:48:24;;;;;;;;;;;12.30;99.90;;;;;;4988666;28;19937;-84
2021/12/24 14:50:57;;;;;;;;;;;11.30;99.90;;;;;;5005771;28;19940;-82
2021/12/24 14:53:27;;;;;;;;;;;11.20;99.90;;;;;;5022698;28;19926;-82
2021/12/24 14:56:25;;;;;;;;;;;11.20;99.90;;;;;;5021682;28;19936;-85
2021/12/24 14:59:19;;;;;;;;;;;11.20;99.90;;;;;;4991542;28;19936;-82
2021/12/24 15:01:58;;;;;;;;;;;11.20;99.90;;;;;;5006576;28;19932;-83
2021/12/24 15:04:44;;;;;;;;;;;;;;;;;;;;;
2021/12/24 15:07:30;;;;;;;;;;;9.70;99.90;;;;;;5002374;28;20097;-84
2021/12/24 15:10:13;;;;;;;;;;;11.10;99.90;;;;;;5002578;28;19926;-82
2021/12/24 15:16:05;;;;;;;;;;;12.40;99.90;;;;;;5003401;28;19940;-84
2021/12/24 15:19:04;;;;;;;;;;;12.40;99.90;;;;;;5005520;28;19940;-81
2021/12/24 15:21:45;;;;;;;;;;;11.40;99.90;;;;;;5005823;28;19936;-85
2021/12/24 15:24:13;;;;;;;;;;;11.20;99.90;;;;;;5022436;28;19926;-84
2021/12/24 15:27:04;;;;;;;;;;;11.20;99.90;;;;;;4989990;28;19937;-82
2021/12/24 15:29:57;;;;;;;;;;;11.20;99.90;;;;;;4987581;28;19941;-87
2021/12/24 15:32:31;;;;;;;;;;;11.20;99.90;;;;;;4990677;28;19932;-86
2021/12/24 15:35:01;;;;;;;;;;;11.50;99.90;;;;;;5022390;28;20294;-86
2021/12/24 15:37:31;;;;;;;;;;;11.20;99.90;;;;;;4990066;28;19929;-84
2021/12/24 15:40:04;;;;;;;;;;;11.10;99.90;;;;;;5021793;28;19934;-83
2021/12/24 15:42:33;;;;;;;;;;;11.00;99.90;;;;;;4988004;28;19930;-82
2021/12/24 15:45:01;;;;;;;;;;;11.00;99.90;;;;;;5003594;28;20032;-82
2021/12/24 15:47:30;;;;;;;;;;;11.20;99.90;;;;;;5005391;28;19945;-81
2021/12/24 15:50:02;;;;;;;;;;;10.90;99.90;;;;;;5000574;28;20096;-87
2021/12/24 15:52:30;;;;;;;;;;;10.90;99.90;;;;;;5001747;28;19940;-82
2021/12/24 15:54:57;;;;;;;;;;;10.90;99.90;;;;;;5018882;28;19987;-84
2021/12/24 15:57:25;;;;;;;;;;;10.80;99.90;;;;;;4996263;28;19940;-83
2021/12/24 15:59:53;;;;;;;;;;;10.70;99.90;;;;;;5001467;28;19944;-82
2021/12/24 16:02:21;;;;;;;;;;;10.80;99.90;;;;;;5014832;28;19937;-83
2021/12/24 16:04:49;;;;;;;;;;;10.70;99.90;;;;;;5001549;28;19930;-85
2021/12/24 16:07:18;;;;;;;;;;;11.00;99.90;;;;;;5020059;28;19929;-82
2021/12/24 16:09:49;;;;;;;;;;;10.70;99.90;;;;;;5004882;28;19949;-83
2021/12/24 16:12:21;;;;;;;;;;;10.70;99.90;;;;;;5005167;28;19940;-83
2021/12/24 16:14:49;;;;;;;;;;;10.80;99.90;;;;;;5016588;28;19945;-83
2021/12/24 16:17:17;;;;;;;;;;;10.60;99.90;;;;;;5014046;28;19930;-82
2021/12/24 16:19:47;;;;;;;;;;;10.70;99.90;;;;;;5014313;28;19941;-82
2021/12/24 16:22:20;;;;;;;;;;;10.70;99.90;;;;;;5001287;28;19933;-82
2021/12/24 16:24:48;;;;;;;;;;;10.70;99.90;;;;;;4976141;28;19930;-82
2021/12/24 16:27:22;;;;;;;;;;;10.30;99.90;;;;;;4992156;28;19937;-82
2021/12/24 16:30:05;;;;;;;;;;;10.70;99.90;;;;;;4981609;28;19926;-86
2021/12/24 16:32:34;;;;;;;;;;;10.70;99.90;;;;;;4931237;28;19934;-84
2021/12/24 16:35:15;;;;;;;;;;;10.60;99.90;;;;;;4981802;28;19953;-84
2021/12/24 16:37:44;;;;;;;;;;;10.70;99.90;;;;;;4980061;28;19926;-83
2021/12/24 16:40:14;;;;;;;;;;;10.70;99.90;;;;;;4994476;28;19934;-83
2021/12/24 16:42:48;;;;;;;;;;;10.70;99.90;;;;;;4978395;28;20381;-84
2021/12/24 16:45:16;;;;;;;;;;;10.10;99.90;;;;;;4977949;28;19930;-85
2021/12/24 16:47:50;;;;;;;;;;;10.60;99.90;;;;;;4980042;28;19930;-82
2021/12/24 16:50:28;;;;;;;;;;;10.80;99.90;;;;;;4980874;28;20333;-82
2021/12/24 16:52:57;;;;;;;;;;;11.30;99.90;;;;;;4996154;28;19933;-82
2021/12/24 16:55:33;;;;;;;;;;;10.60;99.90;;;;;;4997492;28;19934;-83
2021/12/24 16:58:04;;;;;;;;;;;10.60;99.90;;;;;;4996109;28;19937;-81
2021/12/24 17:00:36;;;;;;;;;;;10.70;99.90;;;;;;4982999;28;19941;-82
2021/12/24 17:03:05;;;;;;;;;;;10.40;99.90;;;;;;4981137;28;19941;-81
2021/12/24 17:05:38;;;;;;;;;;;10.60;99.90;;;;;;4971650;28;19930;-80
2021/12/24 17:08:06;;;;;;;;;;;10.30;99.90;;;;;;4982122;28;19945;-80
2021/12/24 17:10:36;;;;;;;;;;;10.30;99.90;;;;;;4995614;28;19926;-80
2021/12/24 17:13:05;;;;;;;;;;;10.30;99.90;;;;;;4981760;28;19937;-80
2021/12/24 17:15:42;;;;;;;;;;;10.20;99.90;;;;;;4995437;28;19926;-80
2021/12/24 17:18:36;;;;;;;;;;;10.10;99.90;;;;;;4996227;28;19934;-79
2021/12/24 17:21:08;;;;;;;;;;;10.10;99.90;;;;;;4980477;28;19930;-80
2021/12/24 17:23:36;;;;;;;;;;;10.20;99.90;;;;;;4980817;28;19926;-79
2021/12/24 17:26:04;;;;;;;;;;;10.00;99.90;;;;;;4999399;28;19930;-79
2021/12/24 17:28:34;;;;;;;;;;;8.90;99.90;;;;;;5001084;28;19933;-80
2021/12/24 17:31:01;;;;;;;;;;;10.10;99.90;;;;;;5001393;28;19926;-79
2021/12/24 17:33:33;;;;;;;;;;;10.20;99.90;;;;;;5004390;28;19929;-80
2021/12/24 17:36:27;;;;;;;;;;;10.00;99.90;;;;;;5003701;28;19938;-79
2021/12/24 17:38:55;;;;;;;;;;;10.00;99.90;;;;;;4999467;28;19926;-80
2021/12/24 17:41:27;;;;;;;;;;;10.00;99.90;;;;;;5003628;28;19933;-80
2021/12/24 17:43:59;;;;;;;;;;;10.20;99.90;;;;;;5003627;28;19932;-80
2021/12/24 17:46:27;;;;;;;;;;;10.90;99.90;;;;;;5006130;28;20101;-83
2021/12/24 17:48:55;;;;;;;;;;;9.80;99.90;;;;;;5005898;28;19925;-80
2021/12/24 17:51:28;;;;;;;;;;;10.20;99.90;;;;;;5002198;28;19926;-79
2021/12/24 17:53:59;;;;;;;;;;;9.90;99.90;;;;;;5018017;28;19929;-80
2021/12/24 17:56:44;;;;;;;;;;;9.90;99.90;;;;;;5007513;28;19933;-81
2021/12/24 17:59:15;;;;;;;;;;;9.90;99.90;;;;;;4988714;28;19948;-80
2021/12/24 18:01:43;;;;;;;;;;;9.90;99.90;;;;;;5005116;28;19930;-79
2021/12/24 18:04:14;;;;;;;;;;;9.80;99.90;;;;;;5008624;28;19937;-80
2021/12/24 18:07:10;;;;;;;;;;;9.80;99.90;;;;;;4992280;28;19941;-80
2021/12/24 18:09:38;;;;;;;;;;;9.80;99.90;;;;;;5004757;28;19926;-79
2021/12/24 18:12:10;;;;;;;;;;;9.80;99.90;;;;;;5008766;28;19925;-79
2021/12/24 18:14:41;;;;;;;;;;;9.80;99.90;;;;;;5007038;28;19926;-81
2021/12/24 18:17:12;;;;;;;;;;;9.80;99.90;;;;;;5002024;28;19934;-81
2021/12/24 18:19:43;;;;;;;;;;;9.80;99.90;;;;;;5009138;28;19926;-83
2021/12/24 18:22:11;;;;;;;;;;;9.70;99.90;;;;;;5009311;28;19948;-81
2021/12/24 18:24:41;;;;;;;;;;;10.00;99.90;;;;;;4989937;28;19929;-78
2021/12/24 18:27:13;;;;;;;;;;;9.80;99.90;;;;;;5004406;28;19926;-78
2021/12/24 18:29:49;;;;;;;;;;;9.80;99.90;;;;;;5003374;28;19926;-80
2021/12/24 18:32:21;;;;;;;;;;;9.80;99.90;;;;;;5001177;28;19942;-78
2021/12/24 18:34:49;;;;;;;;;;;9.90;99.90;;;;;;4987410;28;19929;-79
2021/12/24 18:37:20;;;;;;;;;;;9.70;99.90;;;;;;5000531;28;19948;-80
2021/12/24 18:39:48;;;;;;;;;;;9.70;99.90;;;;;;5000237;28;19930;-79
2021/12/24 18:42:16;;;;;;;;;;;9.70;99.90;;;;;;4999448;28;19925;-80
2021/12/24 18:44:45;;;;;;;;;;;8.80;99.90;;;;;;5000234;28;20276;-80
2021/12/24 18:47:13;;;;;;;;;;;9.70;99.90;;;;;;5000733;28;19934;-80
2021/12/24 18:49:42;;;;;;;;;;;9.70;99.90;;;;;;5001634;28;19941;-80
2021/12/24 18:52:10;;;;;;;;;;;10.00;99.90;;;;;;5003036;28;19932;-81
2021/12/24 18:54:44;;;;;;;;;;;9.70;99.90;;;;;;4988076;28;20123;-79
2021/12/24 18:57:14;;;;;;;;;;;9.70;99.90;;;;;;5000653;28;21649;-82
2021/12/24 18:59:45;;;;;;;;;;;9.70;99.90;;;;;;5000460;28;19926;-81
2021/12/24 19:02:13;;;;;;;;;;;9.70;99.90;;;;;;5001699;28;19941;-80
2021/12/24 19:04:41;;;;;;;;;;;9.70;99.90;;;;;;4999019;28;19926;-80
2021/12/24 19:07:10;;;;;;;;;;;9.70;99.90;;;;;;4997672;28;20014;-80
2021/12/24 19:09:38;;;;;;;;;;;9.70;99.90;;;;;;4997768;28;19937;-82
2021/12/24 19:12:06;;;;;;;;;;;9.70;99.90;;;;;;4998434;28;19941;-81
2021/12/24 19:14:34;;;;;;;;;;;9.70;99.90;;;;;;5000953;28;20652;-81
2021/12/24 19:17:03;;;;;;;;;;;9.60;99.90;;;;;;4999362;28;19937;-80
2021/12/24 19:19:31;;;;;;;;;;;9.60;99.90;;;;;;4999096;28;19934;-82
2021/12/24 19:21:58;;;;;;;;;;;9.60;99.90;;;;;;4996623;28;19937;-83
2021/12/24 19:24:26;;;;;;;;;;;9.40;99.90;;;;;;4984760;28;19926;-77
2021/12/24 19:26:54;;;;;;;;;;;9.60;99.90;;;;;;4999426;28;19949;-85
2021/12/24 19:29:27;;;;;;;;;;;9.70;99.90;;;;;;5002143;28;19937;-79
2021/12/24 19:31:57;;;;;;;;;;;9.70;99.90;;;;;;5004488;28;19930;-80
2021/12/24 19:34:25;;;;;;;;;;;9.70;99.90;;;;;;5003253;28;19925;-79
2021/12/24 19:36:53;;;;;;;;;;;8.20;99.90;;;;;;5004961;28;19929;-78
2021/12/24 19:39:21;;;;;;;;;;;9.60;99.90;;;;;;4989172;28;19933;-79
2021/12/24 19:41:49;;;;;;;;;;;9.60;99.90;;;;;;4987382;28;20355;-81
2021/12/24 19:44:18;;;;;;;;;;;9.60;99.90;;;;;;4987724;28;19930;-80
2021/12/24 19:46:45;;;;;;;;;;;9.50;99.90;;;;;;5001444;28;19929;-79
2021/12/24 19:49:14;;;;;;;;;;;11.20;99.90;;;;;;4984071;28;19925;-82
2021/12/24 19:51:43;;;;;;;;;;;9.50;99.90;;;;;;5004845;28;19925;-79
2021/12/24 19:54:11;;;;;;;;;;;9.70;99.90;;;;;;5006412;28;19925;-81
2021/12/24 19:56:40;;;;;;;;;;;9.60;99.90;;;;;;4991914;28;19925;-79
2021/12/24 19:59:09;;;;;;;;;;;9.60;99.90;;;;;;4988599;28;19944;-82
2021/12/24 20:01:38;;;;;;;;;;;9.70;99.90;;;;;;4998978;28;19937;-79
2021/12/24 20:04:10;;;;;;;;;;;9.30;99.90;;;;;;5003155;28;19930;-79
2021/12/24 20:06:53;;;;;;;;;;;9.60;99.90;;;;;;5007146;28;19930;-79
2021/12/24 20:09:23;;;;;;;;;;;9.70;99.90;;;;;;5019369;23;19926;-89
2021/12/24 20:11:55;;;;;;;;;;;10.80;99.90;;;;;;4979109;28;19910;-91
2021/12/24 20:14:26;;;;;;;;;;;9.70;99.90;;;;;;4994704;28;19925;-91
2021/12/24 20:16:57;;;;;;;;;;;9.90;99.90;;;;;;5020875;28;19949;-90
2021/12/24 20:19:46;;;;;;;;;;;9.80;99.90;;;;;;4982059;28;19979;-91
2021/12/24 20:22:44;;;;;;;;;;;9.70;99.90;;;;;;5007544;28;19914;-91
2021/12/24 20:25:33;;;;;;;;;;;9.70;99.90;;;;;;4999227;28;19936;-90
2021/12/24 20:28:27;;;;;;;;;;;9.60;99.90;;;;;;5008984;28;19926;-91
2021/12/24 20:34:46;;;;;;;;;;;9.70;99.90;;;;;;5020133;28;20362;-83
2021/12/24 20:37:15;;;;;;;;;;;9.10;99.90;;;;;;4989404;28;20001;-79
2021/12/24 20:39:44;;;;;;;;;;;9.60;99.90;;;;;;5027070;28;19944;-80
2021/12/24 20:42:12;;;;;;;;;;;9.50;99.90;;;;;;5006858;28;19936;-81
2021/12/24 20:44:42;;;;;;;;;;;9.50;99.90;;;;;;5022245;28;19926;-87
2021/12/24 20:47:10;;;;;;;;;;;9.50;99.90;;;;;;5006053;28;19934;-85
2021/12/24 20:49:39;;;;;;;;;;;9.70;99.90;;;;;;5006573;28;20578;-86
2021/12/24 20:52:08;;;;;;;;;;;9.60;99.90;;;;;;5005369;28;19933;-87
2021/12/24 20:54:37;;;;;;;;;;;9.60;99.90;;;;;;5006119;28;19934;-82
2021/12/24 20:57:05;;;;;;;;;;;9.50;99.90;;;;;;4999949;28;21220;-88
2021/12/24 20:59:34;;;;;;;;;;;9.50;99.90;;;;;;5005789;28;19932;-83
2021/12/24 21:02:03;;;;;;;;;;;9.70;99.90;;;;;;5006688;28;19934;-80
2021/12/24 21:04:32;;;;;;;;;;;9.50;99.90;;;;;;5007215;28;19929;-78
2021/12/24 21:07:04;;;;;;;;;;;9.50;99.90;;;;;;5005518;28;19934;-79
2021/12/24 21:09:32;;;;;;;;;;;9.60;99.90;;;;;;4999360;28;19926;-80
2021/12/24 21:12:01;;;;;;;;;;;9.50;99.90;;;;;;4999327;28;19937;-82
2021/12/24 21:14:33;;;;;;;;;;;9.50;99.90;;;;;;4998063;28;19937;-81
2021/12/24 21:17:04;;;;;;;;;;;9.50;99.90;;;;;;4997919;28;20022;-80
2021/12/24 21:19:33;;;;;;;;;;;9.50;99.90;;;;;;4999591;28;19925;-78
2021/12/24 21:22:01;;;;;;;;;;;10.20;99.90;;;;;;5015522;28;19925;-83
2021/12/24 21:24:32;;;;;;;;;;;9.50;99.90;;;;;;4991090;28;19936;-81
2021/12/24 21:27:03;;;;;;;;;;;9.50;99.90;;;;;;4976668;28;19944;-80
2021/12/24 21:29:32;;;;;;;;;;;9.50;99.90;;;;;;4993429;28;19937;-83
2021/12/24 21:32:04;;;;;;;;;;;9.60;99.90;;;;;;5005206;28;19944;-79
2021/12/24 21:34:33;;;;;;;;;;;9.50;99.90;;;;;;5003869;28;19925;-80
2021/12/24 21:37:01;;;;;;;;;;;9.50;99.90;;;;;;5003399;28;19928;-80
2021/12/24 21:39:29;;;;;;;;;;;9.50;99.90;;;;;;5000137;28;19945;-80
2021/12/24 21:41:59;;;;;;;;;;;9.40;99.90;;;;;;4988286;28;19937;-81